Latest Coastal Weather Observations for Townsville

IDQ60701

Issued at 4:12 pm EST Tuesday 16 July 2019 (issued every 10 minutes, with the page automatically refreshed every 10 minutes)

About coastal observations | Map of coastal stations | Coastal observations for QLD | Marine services | Other Formats
Station Details ID: 032040 Name: TOWNSVILLE AERO Lat: -19.25 Lon: 146.77 Height: 4.34 m
Data from the previous 72 hours. | See also: Recent months at Townsville
Date/Time
EST
Wind Sea
Height
m
Swell Vis
km
Cloud Weather Temp
°C
Press
hPa
Rain since
9am
mm
Dir  Spd
kts
Gust
kts
Height
m
Period
s
Dir
16/04:00pm NE 13 16 - - - - 10 Clear - 21.2 1017.5 0.0
16/03:30pm NE 14 16 - - - - 10 - - 21.9 1017.3 0.0
16/03:00pm NE 13 17 - - - - 10 - - 22.0 1017.7 0.0
16/02:30pm NE 11 14 - - - - 10 - - 22.6 1017.8 0.0
16/02:00pm NE 11 15 - - - - 10 - - 22.5 1018.1 0.0
16/01:30pm ENE 11 15 - - - - 10 - - 22.4 1018.4 0.0
16/01:00pm NE 11 15 - - - - 10 - - 22.6 1018.9 0.0
16/12:30pm NE 11 14 - - - - 10 - - 22.2 1019.5 0.0
16/12:00pm NE 10 13 - - - - 10 - - 22.3 1019.7 0.0
16/11:30am WSW 3 7 - - - - 10 - - 21.9 1020.2 0.0
16/11:00am SE 7 12 - - - - 10 - - 21.0 1020.5 0.0
16/10:30am SSE 7 12 - - - - 10 - - 20.4 1020.8 0.0
16/10:00am SE 7 11 - - - - 10 - - 20.3 1020.8 0.0
16/09:30am S 6 7 - - - - 10 - - 19.8 1020.9 0.0
16/09:00am S 5 7 - - - - 10 - - 18.7 1021.0 0.0
16/08:30am S 4 7 - - - - 10 - - 16.9 1020.9 0.0
16/08:00am CALM 0 0 - - - - 10 - - 12.2 1020.6 0.0
16/07:30am CALM 0 0 - - - - 10 - - 9.4 1020.4 0.0
16/07:00am CALM 0 0 - - - - 10 - - 7.8 1020.1 0.0
16/06:30am CALM 0 3 - - - - 10 - - 7.7 1019.7 0.0
16/06:00am S 3 4 - - - - 10 - - 8.0 1019.3 0.0
16/05:30am CALM 0 4 - - - - 10 - - 8.6 1019.0 0.0
16/05:00am SSE 5 5 - - - - 10 - - 11.4 1018.6 0.0
16/04:30am SSE 4 5 - - - - 10 - - 10.4 1018.7 0.0
16/04:00am S 4 4 - - - - 10 - - 12.5 1018.7 0.0
16/03:30am SSE 2 4 - - - - 10 - - 12.0 1018.7 0.0
16/03:00am ENE 3 5 - - - - 10 - - 11.8 1018.7 0.0
16/02:30am SSW 6 6 - - - - 10 - - 13.3 1018.8 0.0
16/02:00am S 5 6 - - - - 10 - - 14.1 1019.0 0.0
16/01:30am S 6 9 - - - - 10 - - 14.7 1019.4 0.0
16/01:00am S 6 7 - - - - 10 - - 13.6 1019.5 0.0
16/12:30am SSE 2 6 - - - - 10 - - 10.6 1019.7 0.0
16/12:00am SSW 7 8 - - - - 10 - - 11.6 1019.7 0.0
 
Date/Time
EST
Wind Sea
Height
m
Swell Vis
km
Cloud Weather Temp
°C
Press
hPa
Rain since
9am
mm
Dir  Spd
kts
Gust
kts
Height
m
Period
s
Dir
15/11:30pm SSW 6 6 - - - - 10 - - 15.0 1019.8 0.0
15/11:00pm SSW 6 7 - - - - 10 - - 16.3 1019.8 0.0
15/10:30pm SSW 6 7 - - - - 10 - - 14.8 1019.8 0.0
15/10:00pm SSW 5 6 - - - - 10 - - 16.0 1019.9 0.0
15/09:30pm SSW 7 8 - - - - 10 - - 15.1 1020.0 0.0
15/09:00pm SSW 7 9 - - - - 10 - - 16.8 1019.8 0.0
15/08:30pm SSW 8 9 - - - - 10 - - 16.8 1019.7 0.0
15/08:00pm SSW 8 8 - - - - 10 - - 16.8 1019.3 0.0
15/07:30pm SSW 6 7 - - - - 10 - - 17.6 1019.2 0.0
15/07:00pm SSE 5 7 - - - - 10 - - 16.8 1019.0 0.0
15/06:30pm S 6 7 - - - - 10 - - 18.4 1018.7 0.0
15/06:00pm S 8 9 - - - - 10 - - 18.9 1018.4 0.0
15/05:30pm S 12 15 - - - - 10 - - 21.1 1018.2 0.0
15/05:00pm SSW 10 13 - - - - 10 - - 21.9 1018.1 0.0
15/04:30pm SSW 11 14 - - - - 10 - - 22.4 1018.0 0.0
15/04:05pm SSW 10 16 - - - - 10 - - 22.7 1017.9 0.0
15/04:00pm S 10 15 - - - - 10 - - 22.4 1017.9 0.0
15/03:30pm SSW 11 15 - - - - 10 - - 22.8 1018.0 0.0
15/03:00pm S 9 16 - - - - 10 - - 22.5 1018.2 0.0
15/02:30pm SSW 10 16 - - - - 10 - - 22.6 1018.5 0.0
15/02:00pm S 12 18 - - - - 10 - - 22.5 1019.0 0.0
15/01:30pm SSE 10 16 - - - - 10 - - 21.5 1019.5 0.0
15/01:00pm S 9 15 - - - - 10 - - 21.3 1020.0 0.0
15/12:30pm SSE 9 15 - - - - 10 - - 20.7 1020.6 0.0
15/12:00pm SSE 10 15 - - - - 10 - - 20.7 1021.1 0.0
15/11:30am S 11 15 - - - - 10 - - 20.0 1021.6 0.0
15/11:00am SSE 12 17 - - - - 10 - - 19.9 1022.0 0.0
15/10:30am SE 9 14 - - - - 10 - - 19.4 1022.3 0.0
15/10:00am SSE 13 18 - - - - 10 - - 18.6 1022.3 0.0
15/09:30am SSE 14 19 - - - - 10 - - 18.4 1022.3 0.0
15/09:00am S 16 20 - - - - 10 - - 17.6 1022.3 0.0
15/08:30am S 12 16 - - - - 10 - - 17.4 1022.0 0.0
15/08:00am SSW 8 10 - - - - 10 - - 15.4 1021.5 0.0
15/07:30am S 6 9 - - - - 10 - - 13.9 1021.0 0.0
15/07:00am S 7 9 - - - - 10 - - 12.9 1020.6 0.0
15/06:30am S 9 11 - - - - 10 - - 13.0 1020.2 0.0
15/06:00am S 8 10 - - - - 10 - - 11.8 1019.9 0.0
15/05:30am SSE 6 7 - - - - 10 - - 12.9 1019.5 0.0
15/05:00am SSE 4 6 - - - - 10 - - 14.0 1019.4 0.0
15/04:30am SSW 3 4 - - - - 10 - - 14.7 1019.5 0.0
15/04:00am S 4 5 - - - - 10 - - 14.4 1019.6 0.0
15/03:30am SSW 4 5 - - - - 10 - - 14.4 1019.6 0.0
15/03:00am SSW 3 5 - - - - 10 - - 14.3 1019.7 0.0
15/02:30am WSW 3 6 - - - - 10 - - 13.2 1019.7 0.0
15/02:00am SE 6 10 - - - - 10 - - 15.2 1019.9 0.0
15/01:30am SE 6 8 - - - - 10 - - 15.2 1020.1 0.0
15/01:00am SE 5 6 - - - - 10 - - 15.1 1020.3 0.0
15/12:30am SSE 5 6 - - - - 10 - - 15.8 1020.5 0.0
15/12:00am SE 5 7 - - - - 10 Mostly clear - 16.8 1020.7 0.0
 
Date/Time
EST
Wind Sea
Height
m
Swell Vis
km
Cloud Weather Temp
°C
Press
hPa
Rain since
9am
mm
Dir  Spd
kts
Gust
kts
Height
m
Period
s
Dir
14/11:30pm SE 5 7 - - - - 10 - - 16.5 1020.7 0.0
14/11:00pm SE 5 8 - - - - 10 - - 17.5 1021.0 0.0
14/10:30pm SE 5 6 - - - - 10 - - 17.8 1021.2 0.0
14/10:00pm SE 5 6 - - - - 10 - - 17.7 1021.1 0.0
14/09:30pm ESE 6 7 - - - - 10 - - 17.8 1021.2 0.0
14/09:00pm ESE 6 7 - - - - 10 Cloudy - 18.1 1021.0 0.0
14/08:30pm ESE 7 8 - - - - 10 - - 18.4 1020.5 0.0
14/08:00pm SE 6 7 - - - - 10 - - 18.5 1020.2 0.0
14/07:30pm SE 6 8 - - - - 10 - - 18.9 1020.0 0.0
14/07:00pm ESE 9 11 - - - - 10 - - 19.5 1019.6 0.0
14/06:30pm ESE 8 11 - - - - 10 - - 19.8 1018.9 0.0
14/06:00pm E 10 14 - - - - 10 Partly cloudy - 20.2 1018.3 0.0
14/05:30pm ENE 15 18 - - - - 10 - - 20.9 1017.8 0.0
14/05:00pm ENE 13 17 - - - - 10 - - 21.9 1017.5 0.0
14/04:30pm ENE 15 17 - - - - 10 - - 22.3 1017.2 0.0
14/04:00pm ENE 14 17 - - - - 10 - - 23.0 1017.1 0.0
14/03:30pm ENE 13 17 - - - - 10 - - 23.5 1017.0 0.0
14/03:00pm NE 15 17 - - - - 10 - - 24.0 1017.0 0.0
14/02:30pm ENE 15 18 - - - - 10 - - 25.0 1017.2 0.0
14/02:00pm ENE 15 18 - - - - 10 - - 25.1 1017.5 0.0
14/01:30pm ENE 15 19 - - - - 10 - - 25.2 1017.7 0.0
14/01:00pm S 7 11 - - - - 10 - - 25.3 1018.3 0.0
14/12:30pm SSE 7 9 - - - - 10 - - 24.9 1018.7 0.0
14/12:00pm S 7 14 - - - - 10 - - 24.3 1019.2 0.0
14/11:30am S 9 14 - - - - 10 - - 24.0 1019.4 0.0
14/11:00am SSE 9 15 - - - - 10 - - 24.1 1019.8 0.0
14/10:30am SSE 9 12 - - - - 10 - - 23.3 1020.0 0.0
14/10:00am SSE 8 11 - - - - 10 - - 22.6 1020.3 0.0
14/09:30am SSE 9 12 - - - - 10 - - 22.4 1020.3 0.0
14/09:00am SSE 11 15 - - - - 10 - - 21.3 1020.2 0.0
14/08:30am SSW 7 9 - - - - 10 - - 20.1 1019.8 0.0
14/08:00am SSW 8 9 - - - - 10 - - 19.0 1019.4 0.0
14/07:30am SW 8 9 - - - - 10 - - 17.9 1019.2 0.0
14/07:00am SSW 7 9 - - - - 10 - - 15.1 1018.9 0.0
14/06:30am S 7 10 - - - - 10 - - 15.2 1018.8 0.0
14/06:00am SSW 7 8 - - - - 10 - - 15.9 1018.5 0.0
14/05:30am SSW 7 9 - - - - 10 - - 17.8 1018.4 0.0
14/05:00am S 4 5 - - - - 10 - - 14.9 1018.4 0.0
14/04:30am SE 1 4 - - - - 10 - - 13.1 1018.4 0.0
14/04:00am S 1 4 - - - - 10 - - 14.2 1018.2 0.0
14/03:30am SSE 4 5 - - - - 10 - - 16.1 1018.4 0.0
14/03:00am SSE 3 4 - - - - 10 - - 15.1 1018.4 0.0
14/02:30am S 6 7 - - - - 10 - - 15.5 1018.4 0.0
14/02:00am W 4 4 - - - - 10 - - 14.1 1018.5 0.0
14/01:30am CALM 0 0 - - - - 10 - - 13.8 1018.7 0.0
14/01:00am CALM 0 0 - - - - 10 - - 14.4 1019.1 0.0
14/12:30am CALM 0 0 - - - - 10 - - 14.4 1019.2 0.0
14/12:00am CALM 0 0 - - - - 10 - - 15.0 1019.3 0.0
 
Date/Time
EST
Wind Sea
Height
m
Swell Vis
km
Cloud Weather Temp
°C
Press
hPa
Rain since
9am
mm
Dir  Spd
kts
Gust
kts
Height
m
Period
s
Dir
13/11:30pm CALM 0 0 - - - - 10 - - 16.0 1019.5 0.0
13/11:00pm CALM 0 0 - - - - 10 - - 15.7 1019.6 0.0
13/10:30pm CALM 0 0 - - - - 10 - - 16.3 1019.7 0.0
13/10:00pm CALM 0 0 - - - - 10 - - 16.7 1019.7 0.0
13/09:30pm CALM 0 0 - - - - 10 - - 16.9 1019.6 0.0
13/09:00pm CALM 0 0 - - - - 10 - - 17.9 1019.6 0.0
13/08:30pm CALM 0 0 - - - - 10 - - 18.3 1019.5 0.0
13/08:00pm CALM 0 3 - - - - 10 - - 19.0 1019.2 0.0
13/07:30pm W 5 6 - - - - 10 - - 19.9 1019.0 0.0
13/07:00pm E 6 8 - - - - 10 - - 19.8 1018.4 0.0
13/06:30pm ENE 8 9 - - - - 10 - - 20.3 1018.0 0.0
13/06:00pm ENE 8 9 - - - - 10 - - 21.2 1017.7 0.0
13/05:30pm ENE 8 10 - - - - 10 - - 22.5 1017.6 0.0
13/05:00pm ENE 11 15 - - - - 10 - - 23.7 1017.1 0.0
13/04:30pm ESE 8 11 - - - - 10 - - 25.3 1017.0 0.0

Other formats

Comma delimited format used in spreadsheet applications
http://www.bom.gov.au/fwo/IDQ60701/IDQ60701.94294.axf

JavaScript Object Notation format (JSON) in row-major order
http://www.bom.gov.au/fwo/IDQ60701/IDQ60701.94294.json

Data quality

Most of these data are generated automatically and are frequently updated. Quality checks on data are not normally performed. It is possible for incorrect values to appear. Refer to information at About Latest Weather Observations and please check the disclaimer before using these data.